createdAt,value
2024-04-04T00:00:39.922Z,605.00
2024-04-04T00:01:39.876Z,603.00
2024-04-04T00:02:39.880Z,608.00
2024-04-04T00:03:39.875Z,603.00
2024-04-04T00:04:39.858Z,604.00
2024-04-04T00:05:39.864Z,602.00
2024-04-04T00:06:39.861Z,606.00
2024-04-04T00:07:39.843Z,604.00
2024-04-04T00:08:39.835Z,605.00
2024-04-04T00:09:39.837Z,601.00
2024-04-04T00:10:39.838Z,603.00
2024-04-04T00:11:39.872Z,605.00
2024-04-04T00:12:39.874Z,606.00
2024-04-04T00:13:39.911Z,602.00
2024-04-04T00:14:39.930Z,601.00
2024-04-04T00:15:39.959Z,605.00
2024-04-04T00:16:39.966Z,604.00
2024-04-04T00:17:39.990Z,603.00
2024-04-04T00:18:39.998Z,602.00
2024-04-04T00:19:40.018Z,603.00
2024-04-04T00:20:40.024Z,602.00
2024-04-04T00:21:40.034Z,602.00
2024-04-04T00:22:40.040Z,603.00
2024-04-04T00:23:40.048Z,602.00
2024-04-04T00:24:40.065Z,603.00
2024-04-04T00:25:40.080Z,602.00
2024-04-04T00:26:40.059Z,604.00
2024-04-04T00:27:40.066Z,605.00
2024-04-04T00:28:40.058Z,604.00
2024-04-04T00:29:40.061Z,603.00
2024-04-04T00:30:40.072Z,602.00
2024-04-04T00:31:40.079Z,600.00
2024-04-04T00:32:40.100Z,604.00
2024-04-04T00:33:40.141Z,607.00
2024-04-04T00:34:40.154Z,603.00
2024-04-04T00:35:40.212Z,606.00
2024-04-04T00:36:40.169Z,607.00
2024-04-04T00:37:40.164Z,603.00
2024-04-04T00:38:40.172Z,606.00
2024-04-04T00:39:40.161Z,606.00
2024-04-04T00:40:40.163Z,606.00
2024-04-04T00:41:40.164Z,605.00
2024-04-04T00:42:40.166Z,605.00
2024-04-04T00:43:40.163Z,606.00
2024-04-04T00:44:40.165Z,605.00
2024-04-04T00:45:40.150Z,606.00
2024-04-04T00:46:40.151Z,607.00
2024-04-04T00:47:40.142Z,607.00
2024-04-04T00:48:40.154Z,610.00
2024-04-04T00:49:40.136Z,605.00
2024-04-04T00:50:40.144Z,605.00
2024-04-04T00:51:40.125Z,606.00
2024-04-04T00:52:40.119Z,607.00
2024-04-04T00:53:40.128Z,606.00
2024-04-04T00:54:40.105Z,607.00
2024-04-04T00:55:40.103Z,607.00
2024-04-04T00:56:40.094Z,607.00
2024-04-04T00:57:40.095Z,604.00
2024-04-04T00:58:40.075Z,605.00
2024-04-04T00:59:40.076Z,606.00
2024-04-04T01:00:40.089Z,606.00
2024-04-04T01:01:40.082Z,606.00
2024-04-04T01:02:40.077Z,607.00
2024-04-04T01:03:40.066Z,604.00
2024-04-04T01:04:40.069Z,605.00
2024-04-04T01:05:40.067Z,603.00
2024-04-04T01:06:40.074Z,603.00
2024-04-04T01:07:40.055Z,605.00
2024-04-04T01:08:40.056Z,603.00
2024-04-04T01:09:40.064Z,603.00
2024-04-04T01:10:40.066Z,602.00
2024-04-04T01:11:40.064Z,604.00
2024-04-04T01:12:40.077Z,602.00
2024-04-04T01:13:40.060Z,606.00
2024-04-04T01:14:40.045Z,603.00
2024-04-04T01:15:40.039Z,602.00
2024-04-04T01:16:40.050Z,602.00
2024-04-04T01:17:40.051Z,602.00
2024-04-04T01:19:13.762Z,600.00
2024-04-04T01:20:13.777Z,600.00
2024-04-04T01:21:13.762Z,600.00
2024-04-04T01:22:13.759Z,600.00
2024-04-04T01:23:13.777Z,600.00
2024-04-04T01:24:13.752Z,600.00
2024-04-04T01:25:13.786Z,602.00
2024-04-04T01:26:13.751Z,602.00
2024-04-04T01:27:13.750Z,602.00
2024-04-04T01:28:13.743Z,602.00
2024-04-04T01:29:13.737Z,602.00
2024-04-04T01:30:13.725Z,600.00
2024-04-04T01:31:13.733Z,603.00
2024-04-04T01:32:13.729Z,603.00
2024-04-04T01:33:13.716Z,603.00
2024-04-04T01:34:13.716Z,603.00
2024-04-04T01:35:13.722Z,601.00
2024-04-04T01:36:13.703Z,602.00
2024-04-04T01:37:13.702Z,603.00
2024-04-04T01:38:13.705Z,603.00
2024-04-04T01:39:13.738Z,603.00
2024-04-04T01:40:13.703Z,599.00
2024-04-04T01:41:13.691Z,600.00
2024-04-04T01:42:13.687Z,600.00
2024-04-04T01:43:13.681Z,600.00
2024-04-04T01:44:13.673Z,603.00
2024-04-04T01:45:13.670Z,603.00
2024-04-04T01:46:13.658Z,604.00
2024-04-04T01:47:13.665Z,604.00
2024-04-04T01:48:13.643Z,604.00
2024-04-04T01:49:13.633Z,601.00
2024-04-04T01:50:13.644Z,601.00
2024-04-04T01:51:13.628Z,603.00
2024-04-04T01:52:13.623Z,600.00
2024-04-04T01:53:13.598Z,601.00
2024-04-04T01:54:13.609Z,600.00
2024-04-04T01:55:13.605Z,603.00
2024-04-04T01:56:13.578Z,602.00
2024-04-04T01:57:13.576Z,603.00
2024-04-04T01:58:13.567Z,601.00
2024-04-04T01:59:13.565Z,603.00
2024-04-04T02:00:13.549Z,601.00
2024-04-04T02:01:13.543Z,603.00
2024-04-04T02:02:13.525Z,602.00
2024-04-04T02:03:13.521Z,603.00
2024-04-04T02:04:13.508Z,602.00
2024-04-04T02:05:13.545Z,601.00
2024-04-04T02:06:13.506Z,603.00
2024-04-04T02:07:13.508Z,603.00
2024-04-04T02:08:13.515Z,601.00
2024-04-04T02:09:13.494Z,601.00
2024-04-04T02:10:13.478Z,604.00
2024-04-04T02:11:13.484Z,605.00
2024-04-04T02:12:13.459Z,605.00
2024-04-04T02:13:13.455Z,605.00
2024-04-04T02:14:13.456Z,607.00
2024-04-04T02:15:13.460Z,607.00
2024-04-04T02:16:13.429Z,609.00
2024-04-04T02:17:13.419Z,606.00
2024-04-04T02:18:13.415Z,602.00
2024-04-04T02:19:13.412Z,604.00
2024-04-04T02:20:13.421Z,603.00
2024-04-04T02:21:13.406Z,604.00
2024-04-04T02:22:13.391Z,603.00
2024-04-04T02:23:13.377Z,604.00
2024-04-04T02:24:13.374Z,605.00
2024-04-04T02:25:13.378Z,603.00
2024-04-04T02:26:13.366Z,603.00
2024-04-04T02:27:13.361Z,603.00
2024-04-04T02:28:13.351Z,602.00
2024-04-04T02:29:13.366Z,603.00
2024-04-04T02:30:13.356Z,603.00
2024-04-04T02:31:13.350Z,603.00
2024-04-04T02:32:13.342Z,601.00
2024-04-04T02:33:13.337Z,602.00
2024-04-04T02:34:13.333Z,600.00
2024-04-04T02:35:13.347Z,602.00
2024-04-04T02:36:13.327Z,604.00
2024-04-04T02:37:13.324Z,606.00
2024-04-04T02:38:13.327Z,605.00
2024-04-04T02:39:13.317Z,604.00
2024-04-04T02:40:13.314Z,602.00
2024-04-04T02:41:13.294Z,602.00
2024-04-04T02:42:13.283Z,602.00
2024-04-04T02:43:13.273Z,601.00
2024-04-04T02:44:13.268Z,600.00
2024-04-04T02:45:13.256Z,600.00
2024-04-04T02:46:13.249Z,604.00
2024-04-04T02:47:13.243Z,601.00
2024-04-04T02:48:13.223Z,602.00
2024-04-04T02:49:13.206Z,603.00
2024-04-04T02:50:13.191Z,603.00
2024-04-04T02:51:13.189Z,604.00
2024-04-04T02:52:13.184Z,602.00
2024-04-04T02:53:13.207Z,601.00
2024-04-04T02:54:13.177Z,604.00
2024-04-04T02:55:13.160Z,604.00
2024-04-04T02:56:13.149Z,602.00
2024-04-04T02:57:13.144Z,601.00
2024-04-04T02:58:13.139Z,603.00
2024-04-04T02:59:13.132Z,603.00
2024-04-04T03:00:13.124Z,602.00
2024-04-04T03:01:13.144Z,600.00
2024-04-04T03:02:13.106Z,601.00
2024-04-04T03:03:13.104Z,601.00
2024-04-04T03:04:13.089Z,601.00
2024-04-04T03:05:13.092Z,602.00
2024-04-04T03:06:13.082Z,603.00
2024-04-04T03:07:13.084Z,601.00
2024-04-04T03:08:13.061Z,602.00
2024-04-04T03:09:13.057Z,602.00
2024-04-04T03:10:13.051Z,604.00
2024-04-04T03:11:13.055Z,601.00
2024-04-04T03:12:13.047Z,601.00
2024-04-04T03:13:13.031Z,602.00
2024-04-04T03:14:13.015Z,603.00
2024-04-04T03:15:13.033Z,603.00
2024-04-04T03:16:13.011Z,606.00
2024-04-04T03:17:13.005Z,604.00
2024-04-04T03:18:13.010Z,604.00
2024-04-04T03:19:13.007Z,600.00
2024-04-04T03:20:12.986Z,602.00
2024-04-04T03:21:12.983Z,600.00
2024-04-04T03:22:12.967Z,602.00
2024-04-04T03:23:12.967Z,605.00
2024-04-04T03:24:12.949Z,600.00
2024-04-04T03:25:12.973Z,603.00
2024-04-04T03:26:12.940Z,603.00
2024-04-04T03:27:12.925Z,603.00
2024-04-04T03:28:12.904Z,604.00
2024-04-04T03:29:12.917Z,601.00
2024-04-04T03:30:12.892Z,602.00
2024-04-04T03:31:12.881Z,600.00
2024-04-04T03:32:12.881Z,604.00
2024-04-04T03:33:13.687Z,603.00
2024-04-04T03:34:12.850Z,602.00
2024-04-04T03:35:12.848Z,603.00
2024-04-04T03:36:12.840Z,604.00
2024-04-04T03:37:12.832Z,601.00
2024-04-04T03:38:12.824Z,601.00
2024-04-04T03:39:12.820Z,602.00
2024-04-04T03:40:12.830Z,603.00
2024-04-04T03:41:12.825Z,602.00
2024-04-04T03:42:12.810Z,601.00
2024-04-04T03:43:12.807Z,602.00
2024-04-04T03:44:12.805Z,602.00
2024-04-04T03:45:12.814Z,601.00
2024-04-04T03:46:12.830Z,605.00
2024-04-04T03:47:12.811Z,605.00
2024-04-04T03:48:12.804Z,603.00
2024-04-04T03:49:12.796Z,605.00
2024-04-04T03:50:12.817Z,601.00
2024-04-04T03:51:12.969Z,604.00
2024-04-04T03:52:12.793Z,604.00
2024-04-04T03:53:12.773Z,604.00
2024-04-04T03:54:12.773Z,604.00
2024-04-04T03:55:12.751Z,604.00
2024-04-04T03:56:12.759Z,604.00
2024-04-04T03:57:12.742Z,603.00
2024-04-04T03:58:12.739Z,603.00
2024-04-04T03:59:12.742Z,603.00
2024-04-04T04:00:12.735Z,603.00
2024-04-04T04:01:12.722Z,603.00
2024-04-04T04:02:12.715Z,603.00
2024-04-04T04:03:12.700Z,603.00
2024-04-04T04:04:12.707Z,604.00
2024-04-04T04:05:12.691Z,602.00
2024-04-04T04:06:12.681Z,604.00
2024-04-04T04:07:12.672Z,601.00
2024-04-04T04:08:12.653Z,601.00
2024-04-04T04:09:12.661Z,602.00
2024-04-04T04:10:12.663Z,602.00
2024-04-04T04:11:12.632Z,605.00
2024-04-04T04:12:12.625Z,605.00
2024-04-04T04:13:12.630Z,602.00
2024-04-04T04:14:12.628Z,605.00
2024-04-04T04:15:12.616Z,607.00
2024-04-04T04:16:12.611Z,602.00
2024-04-04T04:17:12.606Z,605.00
2024-04-04T04:18:12.587Z,600.00
2024-04-04T04:19:12.587Z,602.00
2024-04-04T04:20:12.584Z,600.00
2024-04-04T04:21:12.562Z,603.00
2024-04-04T04:22:12.547Z,603.00
2024-04-04T04:23:12.544Z,602.00
2024-04-04T04:24:12.525Z,602.00
2024-04-04T04:25:12.511Z,603.00
2024-04-04T04:26:12.520Z,602.00
2024-04-04T04:27:12.486Z,603.00
2024-04-04T04:28:12.497Z,602.00
2024-04-04T04:29:12.459Z,603.00
2024-04-04T04:30:12.447Z,605.00
2024-04-04T04:31:12.524Z,602.00
2024-04-04T04:32:19.766Z,600.00
2024-04-04T04:33:19.757Z,600.00
2024-04-04T04:34:19.780Z,600.00
2024-04-04T04:35:19.765Z,600.00
2024-04-04T04:36:19.763Z,600.00
2024-04-04T04:37:19.743Z,602.00
2024-04-04T04:38:19.766Z,603.00
2024-04-04T04:39:19.737Z,603.00
2024-04-04T04:40:19.738Z,601.00
2024-04-04T04:41:19.738Z,601.00
2024-04-04T04:42:19.727Z,602.00
2024-04-04T04:43:19.712Z,598.00
2024-04-04T04:44:19.744Z,604.00
2024-04-04T04:45:19.705Z,601.00
2024-04-04T04:46:19.715Z,602.00
2024-04-04T04:47:19.699Z,601.00
2024-04-04T04:48:19.715Z,601.00
2024-04-04T04:49:19.693Z,601.00
2024-04-04T04:50:19.681Z,602.00
2024-04-04T04:51:19.690Z,603.00
2024-04-04T04:52:19.665Z,602.00
2024-04-04T04:53:19.659Z,601.00
2024-04-04T04:54:19.651Z,600.00
2024-04-04T04:55:19.654Z,603.00
2024-04-04T04:56:19.669Z,601.00
2024-04-04T04:57:19.665Z,601.00
2024-04-04T04:58:19.652Z,601.00
2024-04-04T04:59:19.641Z,601.00
2024-04-04T05:00:19.629Z,601.00
2024-04-04T05:01:19.625Z,601.00
2024-04-04T05:02:19.610Z,604.00
2024-04-04T05:03:19.606Z,602.00
2024-04-04T05:04:19.606Z,605.00
2024-04-04T05:05:19.606Z,602.00
2024-04-04T05:06:19.611Z,604.00
2024-04-04T05:07:19.603Z,601.00
2024-04-04T05:08:19.608Z,603.00
2024-04-04T05:09:19.607Z,603.00
2024-04-04T05:10:19.633Z,602.00
2024-04-04T05:11:19.623Z,603.00
2024-04-04T05:12:19.603Z,604.00
2024-04-04T05:13:19.596Z,603.00
2024-04-04T05:14:19.604Z,601.00
2024-04-04T05:15:19.615Z,602.00
2024-04-04T05:16:19.617Z,602.00
2024-04-04T05:17:19.604Z,603.00
2024-04-04T05:18:19.609Z,603.00
2024-04-04T05:19:19.601Z,604.00
2024-04-04T05:20:19.606Z,603.00
2024-04-04T05:21:19.604Z,605.00
2024-04-04T05:22:19.594Z,603.00
2024-04-04T05:23:21.301Z,602.00
2024-04-04T05:24:19.591Z,601.00
2024-04-04T05:25:19.584Z,604.00
2024-04-04T05:26:19.591Z,604.00
2024-04-04T05:27:19.597Z,603.00
2024-04-04T05:28:20.328Z,604.00
2024-04-04T05:29:19.592Z,603.00
2024-04-04T05:30:19.592Z,599.00
2024-04-04T05:31:19.597Z,588.00
2024-04-04T05:32:19.607Z,572.00
2024-04-04T05:33:19.592Z,556.00
2024-04-04T05:34:19.600Z,533.00
2024-04-04T05:35:19.613Z,511.00
2024-04-04T05:36:19.639Z,484.00
2024-04-04T05:37:19.679Z,456.00
2024-04-04T05:38:20.105Z,443.00
2024-04-04T05:39:19.636Z,424.00
2024-04-04T05:40:19.646Z,446.00
2024-04-04T05:41:19.647Z,470.00
2024-04-04T05:42:19.639Z,495.00
2024-04-04T05:43:19.654Z,521.00
2024-04-04T05:44:19.670Z,507.00
2024-04-04T05:45:19.691Z,503.00
2024-04-04T05:46:19.689Z,507.00
2024-04-04T05:47:19.701Z,506.00
2024-04-04T05:48:19.709Z,505.00
2024-04-04T05:49:19.716Z,537.00
2024-04-04T05:50:19.741Z,574.00
2024-04-04T05:51:19.747Z,603.00
2024-04-04T05:52:19.760Z,599.00
2024-04-04T05:53:21.029Z,600.00
2024-04-04T05:54:19.795Z,600.00
2024-04-04T05:55:19.804Z,600.00
2024-04-04T05:56:19.829Z,600.00
2024-04-04T05:57:19.828Z,600.00
2024-04-04T05:58:19.850Z,600.00
2024-04-04T05:59:19.871Z,600.00
2024-04-04T06:00:19.883Z,600.00
2024-04-04T06:01:19.906Z,600.00
2024-04-04T06:02:19.904Z,600.00
2024-04-04T06:03:19.907Z,600.00
2024-04-04T06:04:22.850Z,600.00
2024-04-04T06:05:20.984Z,593.00
2024-04-04T06:06:20.020Z,590.00
2024-04-04T06:07:19.997Z,586.00
2024-04-04T06:08:20.025Z,584.00
2024-04-04T06:09:20.035Z,584.00
2024-04-04T06:10:20.091Z,603.00
2024-04-04T06:11:20.085Z,602.00
2024-04-04T06:12:20.083Z,609.00
2024-04-04T06:13:20.093Z,613.00
2024-04-04T06:14:20.121Z,607.00
2024-04-04T06:15:20.162Z,611.00
2024-04-04T06:16:20.240Z,610.00
2024-04-04T06:17:20.330Z,608.00
2024-04-04T06:18:20.411Z,619.00
2024-04-04T06:19:20.403Z,619.00
2024-04-04T06:20:20.442Z,622.00
2024-04-04T06:21:20.480Z,629.00
2024-04-04T06:22:20.464Z,643.00
2024-04-04T06:23:20.498Z,621.00
2024-04-04T06:24:20.511Z,630.00
2024-04-04T06:25:20.527Z,650.00
2024-04-04T06:26:20.527Z,710.00
2024-04-04T06:27:20.519Z,857.00
2024-04-04T06:28:20.547Z,914.00
2024-04-04T06:29:20.548Z,970.00
2024-04-04T06:30:20.556Z,1022.00
2024-04-04T06:31:20.607Z,1061.00
2024-04-04T06:32:20.560Z,1130.00
2024-04-04T06:33:20.563Z,1187.00
2024-04-04T06:34:20.617Z,1242.00
2024-04-04T06:35:20.654Z,1296.00
2024-04-04T06:36:20.690Z,1345.00
2024-04-04T06:37:20.723Z,1396.00
2024-04-04T06:38:20.754Z,1439.00
2024-04-04T06:39:20.750Z,1441.00
2024-04-04T06:40:20.757Z,1451.00
2024-04-04T06:41:20.774Z,1478.00
2024-04-04T06:42:20.745Z,1518.00
2024-04-04T06:43:20.752Z,1566.00
2024-04-04T06:44:20.728Z,1594.00
2024-04-04T06:45:20.718Z,1601.00
2024-04-04T06:46:20.739Z,1611.00
2024-04-04T06:47:20.718Z,1617.00
2024-04-04T06:48:20.718Z,1598.00
2024-04-04T06:49:20.707Z,1578.00
2024-04-04T06:50:21.942Z,1561.00
2024-04-04T06:51:20.701Z,1523.00
2024-04-04T06:52:20.706Z,1494.00
2024-04-04T06:53:20.706Z,1480.00
2024-04-04T06:54:20.692Z,1436.00
2024-04-04T06:55:20.715Z,1438.00
2024-04-04T06:56:20.686Z,1405.00
2024-04-04T06:57:20.692Z,1389.00
2024-04-04T06:58:20.769Z,1359.00
2024-04-04T06:59:20.739Z,1342.00
2024-04-04T07:00:20.668Z,1319.00
2024-04-04T07:01:20.693Z,1284.00
2024-04-04T07:02:20.656Z,1266.00
2024-04-04T07:03:20.656Z,1254.00
2024-04-04T07:04:20.661Z,1235.00
2024-04-04T07:05:20.724Z,1213.00
2024-04-04T07:06:20.679Z,1195.00
2024-04-04T07:07:20.686Z,1210.00
2024-04-04T07:08:20.692Z,1191.00
2024-04-04T07:09:20.648Z,1189.00
2024-04-04T07:10:20.643Z,1167.00
2024-04-04T07:11:20.646Z,1176.00
2024-04-04T07:12:20.633Z,1187.00
2024-04-04T07:13:20.686Z,1214.00
2024-04-04T07:14:20.667Z,1215.00
2024-04-04T07:15:20.625Z,1215.00
2024-04-04T07:16:20.634Z,1214.00
2024-04-04T07:17:20.615Z,1195.00
2024-04-04T07:18:20.618Z,1190.00
2024-04-04T07:19:20.627Z,1178.00
2024-04-04T07:20:20.584Z,1155.00
2024-04-04T07:21:20.595Z,1148.00
2024-04-04T07:22:20.626Z,1153.00
2024-04-04T07:23:20.579Z,1138.00
2024-04-04T07:24:20.576Z,1144.00
2024-04-04T07:25:20.562Z,1145.00
2024-04-04T07:26:20.591Z,1135.00
2024-04-04T07:27:20.575Z,1109.00
2024-04-04T07:28:20.559Z,1092.00
2024-04-04T07:29:20.560Z,1074.00
2024-04-04T07:30:20.555Z,1056.00
2024-04-04T07:31:20.586Z,1073.00
2024-04-04T07:32:20.565Z,1071.00
2024-04-04T07:33:20.590Z,1062.00
2024-04-04T07:34:20.552Z,1040.00
2024-04-04T07:35:20.604Z,1044.00
2024-04-04T07:36:20.559Z,1045.00
2024-04-04T07:37:20.580Z,1057.00
2024-04-04T07:38:20.544Z,1014.00
2024-04-04T07:39:20.552Z,990.00
2024-04-04T07:40:20.556Z,934.00
2024-04-04T07:41:20.546Z,859.00
2024-04-04T07:42:20.543Z,777.00
2024-04-04T07:43:20.534Z,720.00
2024-04-04T07:44:20.535Z,663.00
2024-04-04T07:45:20.542Z,636.00
2024-04-04T07:46:20.530Z,616.00
2024-04-04T07:47:20.571Z,586.00
2024-04-04T07:48:20.543Z,567.00
2024-04-04T07:49:20.565Z,554.00
2024-04-04T07:50:20.583Z,558.00
2024-04-04T07:51:20.608Z,582.00
2024-04-04T07:52:20.609Z,608.00
2024-04-04T07:53:20.611Z,629.00
2024-04-04T07:54:20.619Z,663.00
2024-04-04T07:55:20.638Z,805.00
2024-04-04T07:56:20.624Z,931.00
2024-04-04T07:57:20.604Z,1008.00
2024-04-04T07:58:20.607Z,1079.00
2024-04-04T07:59:20.602Z,1112.00
2024-04-04T08:00:20.600Z,1167.00
2024-04-04T08:01:20.619Z,1202.00
2024-04-04T08:02:20.587Z,1233.00
2024-04-04T08:03:20.586Z,1249.00
2024-04-04T08:04:20.598Z,1263.00
2024-04-04T08:05:20.583Z,1278.00
2024-04-04T08:06:20.599Z,1299.00
2024-04-04T08:07:20.572Z,1313.00
2024-04-04T08:08:20.579Z,1335.00
2024-04-04T08:09:20.615Z,1347.00
2024-04-04T08:10:21.623Z,1369.00
2024-04-04T08:11:20.559Z,1367.00
2024-04-04T08:12:20.583Z,1371.00
2024-04-04T08:13:20.645Z,1391.00
2024-04-04T08:14:20.704Z,1407.00
2024-04-04T08:15:20.716Z,1407.00
2024-04-04T08:16:20.694Z,1387.00
2024-04-04T08:17:20.690Z,1359.00
2024-04-04T08:18:20.692Z,1355.00
2024-04-04T08:19:20.683Z,1310.00
2024-04-04T08:20:20.683Z,1252.00
2024-04-04T08:21:20.676Z,1216.00
2024-04-04T08:22:20.661Z,1182.00
2024-04-04T08:23:20.686Z,1149.00
2024-04-04T08:24:20.675Z,1138.00
2024-04-04T08:25:20.748Z,1118.00
2024-04-04T08:26:20.762Z,1102.00
2024-04-04T08:27:20.799Z,1052.00
2024-04-04T08:28:20.838Z,992.00
2024-04-04T08:29:20.864Z,943.00
2024-04-04T08:30:20.851Z,877.00
2024-04-04T08:31:20.873Z,1158.00
2024-04-04T08:32:20.864Z,1260.00
2024-04-04T08:33:20.868Z,1342.00
2024-04-04T08:34:20.902Z,1364.00
2024-04-04T08:35:20.897Z,1347.00
2024-04-04T08:36:20.915Z,1336.00
2024-04-04T08:37:20.925Z,1341.00
2024-04-04T08:38:20.898Z,1322.00
2024-04-04T08:39:20.902Z,1334.00
2024-04-04T08:40:20.929Z,1337.00
2024-04-04T08:41:20.878Z,1329.00
2024-04-04T08:42:20.869Z,1341.00
2024-04-04T08:43:20.873Z,1341.00
2024-04-04T08:44:20.847Z,1345.00
2024-04-04T08:45:20.850Z,1350.00
2024-04-04T08:46:20.865Z,1363.00
2024-04-04T08:47:20.821Z,1359.00
2024-04-04T08:48:20.830Z,1385.00
2024-04-04T08:49:20.838Z,1409.00
2024-04-04T08:50:29.315Z,1415.00
2024-04-04T08:51:21.803Z,1409.00
2024-04-04T08:52:20.780Z,1397.00
2024-04-04T08:53:20.803Z,1282.00
2024-04-04T08:54:20.761Z,1200.00
2024-04-04T08:55:20.756Z,1177.00
2024-04-04T08:56:20.778Z,1068.00
2024-04-04T08:57:20.784Z,945.00
2024-04-04T08:58:20.748Z,858.00
2024-04-04T08:59:20.748Z,759.00
2024-04-04T09:00:20.735Z,681.00
2024-04-04T09:01:30.058Z,646.00
2024-04-04T09:02:21.724Z,629.00
2024-04-04T09:03:20.716Z,609.00
2024-04-04T09:04:20.720Z,591.00
2024-04-04T09:05:20.736Z,580.00
2024-04-04T09:06:20.724Z,567.00
2024-04-04T09:07:20.707Z,598.00
2024-04-04T09:08:20.703Z,605.00
2024-04-04T09:09:20.684Z,607.00
2024-04-04T09:10:20.688Z,608.00
2024-04-04T09:11:20.688Z,602.00
2024-04-04T09:12:20.668Z,600.00
2024-04-04T09:13:20.682Z,601.00
2024-04-04T09:14:20.685Z,600.00
2024-04-04T09:15:20.744Z,600.00
2024-04-04T09:16:20.669Z,600.00
2024-04-04T09:17:20.657Z,600.00
2024-04-04T09:18:20.645Z,605.00
2024-04-04T09:19:20.646Z,615.00
2024-04-04T09:20:20.645Z,627.00
2024-04-04T09:21:20.654Z,636.00
2024-04-04T09:22:20.639Z,644.00
2024-04-04T09:23:20.632Z,663.00
2024-04-04T09:24:20.623Z,702.00
2024-04-04T09:25:20.667Z,751.00
2024-04-04T09:26:20.606Z,779.00
2024-04-04T09:27:20.619Z,816.00
2024-04-04T09:28:20.607Z,852.00
2024-04-04T09:29:20.585Z,891.00
2024-04-04T09:30:20.594Z,900.00
2024-04-04T09:31:20.577Z,923.00
2024-04-04T09:32:20.630Z,926.00
2024-04-04T09:33:20.697Z,935.00
2024-04-04T09:34:20.742Z,937.00
2024-04-04T09:35:20.816Z,959.00
2024-04-04T09:36:20.837Z,950.00
2024-04-04T09:37:20.875Z,971.00
2024-04-04T09:38:20.913Z,980.00
2024-04-04T09:39:20.998Z,1009.00
2024-04-04T09:40:21.026Z,1033.00
2024-04-04T09:41:21.085Z,1005.00
2024-04-04T09:42:21.121Z,930.00
2024-04-04T09:43:21.181Z,826.00
2024-04-04T09:44:21.182Z,757.00
2024-04-04T09:45:21.214Z,663.00
2024-04-04T09:46:21.234Z,630.00
2024-04-04T09:47:21.268Z,598.00
2024-04-04T09:48:22.804Z,600.00
2024-04-04T09:49:21.310Z,576.00
2024-04-04T09:50:21.302Z,553.00
2024-04-04T09:51:21.326Z,527.00
2024-04-04T09:52:21.298Z,512.00
2024-04-04T09:53:21.373Z,498.00
2024-04-04T09:54:21.298Z,485.00
2024-04-04T09:55:21.307Z,470.00
2024-04-04T09:56:21.303Z,460.00
2024-04-04T09:57:21.302Z,444.00
2024-04-04T09:58:21.306Z,470.00
2024-04-04T09:59:21.305Z,490.00
2024-04-04T10:00:21.312Z,516.00
2024-04-04T10:01:21.319Z,536.00
2024-04-04T10:02:21.297Z,561.00
2024-04-04T10:03:21.301Z,553.00
2024-04-04T10:04:21.312Z,544.00
2024-04-04T10:05:21.313Z,537.00
2024-04-04T10:06:21.388Z,525.00
2024-04-04T10:07:21.306Z,522.00
2024-04-04T10:08:21.317Z,517.00
2024-04-04T10:09:21.332Z,554.00
2024-04-04T10:10:21.319Z,587.00
2024-04-04T10:11:21.330Z,600.00
2024-04-04T10:12:21.354Z,608.00
2024-04-04T10:13:21.346Z,616.00
2024-04-04T10:14:21.422Z,613.00
2024-04-04T10:15:21.495Z,603.00
2024-04-04T10:16:21.565Z,600.00
2024-04-04T10:17:21.608Z,603.00
2024-04-04T10:18:21.716Z,600.00
2024-04-04T10:19:21.760Z,606.00
2024-04-04T10:20:21.827Z,606.00
2024-04-04T10:21:21.847Z,598.00
2024-04-04T10:22:21.834Z,588.00
2024-04-04T10:23:21.839Z,584.00
2024-04-04T10:24:21.855Z,591.00
2024-04-04T10:25:21.861Z,595.00
2024-04-04T10:26:21.852Z,600.00
2024-04-04T10:27:21.862Z,600.00
2024-04-04T10:28:21.940Z,604.00
2024-04-04T10:29:30.658Z,600.00
2024-04-04T10:30:22.886Z,596.00
2024-04-04T10:31:21.850Z,589.00
2024-04-04T10:32:21.865Z,593.00
2024-04-04T10:33:21.850Z,590.00
2024-04-04T10:34:21.849Z,598.00
2024-04-04T10:35:21.869Z,609.00
2024-04-04T10:36:21.866Z,601.00
2024-04-04T10:37:21.846Z,604.00
2024-04-04T10:38:21.851Z,604.00
2024-04-04T10:39:21.901Z,603.00
2024-04-04T10:40:21.893Z,603.00
2024-04-04T10:41:21.913Z,604.00
2024-04-04T10:42:21.917Z,606.00
2024-04-04T10:43:21.921Z,609.00
2024-04-04T10:44:21.920Z,604.00
2024-04-04T10:45:21.934Z,603.00
2024-04-04T10:46:21.932Z,604.00
2024-04-04T10:47:21.956Z,607.00
2024-04-04T10:48:21.927Z,618.00
2024-04-04T10:49:21.938Z,645.00
2024-04-04T10:50:21.945Z,667.00
2024-04-04T10:51:21.955Z,719.00
2024-04-04T10:52:21.974Z,747.00
2024-04-04T10:53:21.962Z,773.00
2024-04-04T10:54:21.969Z,805.00
2024-04-04T10:55:22.028Z,832.00
2024-04-04T10:56:22.066Z,855.00
2024-04-04T10:57:22.122Z,893.00
2024-04-04T10:58:22.225Z,917.00
2024-04-04T10:59:22.246Z,945.00
2024-04-04T11:00:22.236Z,945.00
2024-04-04T11:01:22.260Z,952.00
2024-04-04T11:02:22.256Z,963.00
2024-04-04T11:03:22.279Z,1001.00
2024-04-04T11:04:22.251Z,1046.00
2024-04-04T11:05:22.247Z,1056.00
2024-04-04T11:06:22.258Z,1078.00
2024-04-04T11:07:22.267Z,1079.00
2024-04-04T11:08:22.249Z,1084.00
2024-04-04T11:09:22.237Z,1104.00
2024-04-04T11:10:22.238Z,1135.00
2024-04-04T11:11:22.234Z,1188.00
2024-04-04T11:12:22.229Z,1234.00
2024-04-04T11:13:22.228Z,1278.00
2024-04-04T11:14:22.210Z,1317.00
2024-04-04T11:15:22.192Z,1364.00
2024-04-04T11:16:22.204Z,1418.00
2024-04-04T11:17:22.167Z,1474.00
2024-04-04T11:18:22.172Z,1539.00
2024-04-04T11:19:22.162Z,1563.00
2024-04-04T11:20:22.145Z,1607.00
2024-04-04T11:21:22.170Z,1648.00
2024-04-04T11:22:22.123Z,1688.00
2024-04-04T11:23:22.111Z,1716.00
2024-04-04T11:24:22.150Z,1769.00
2024-04-04T11:25:22.191Z,1808.00
2024-04-04T11:26:22.256Z,1836.00
2024-04-04T11:27:22.292Z,1924.00
2024-04-04T11:28:22.356Z,2003.00
2024-04-04T11:29:22.407Z,2034.00
2024-04-04T11:30:22.456Z,2077.00
2024-04-04T11:31:22.520Z,2108.00
2024-04-04T11:32:22.550Z,2176.00
2024-04-04T11:33:22.621Z,2218.00
2024-04-04T11:34:22.691Z,2246.00
2024-04-04T11:35:22.724Z,2296.00
2024-04-04T11:36:22.754Z,2293.00
2024-04-04T11:37:22.801Z,2311.00
2024-04-04T11:38:22.859Z,2317.00
2024-04-04T11:39:22.917Z,2347.00
2024-04-04T11:40:22.963Z,2355.00
2024-04-04T11:41:23.010Z,2398.00
2024-04-04T11:42:23.087Z,2396.00
2024-04-04T11:43:23.131Z,2409.00
2024-04-04T11:44:23.181Z,2397.00
2024-04-04T11:45:23.241Z,2414.00
2024-04-04T11:46:23.273Z,2407.00
2024-04-04T11:47:23.325Z,2418.00
2024-04-04T11:48:23.382Z,2393.00
2024-04-04T11:49:23.429Z,2378.00
2024-04-04T11:50:23.491Z,2343.00
2024-04-04T11:51:23.547Z,2362.00
2024-04-04T11:52:23.602Z,2347.00
2024-04-04T11:53:23.658Z,2317.00
2024-04-04T11:54:23.626Z,2317.00
2024-04-04T11:55:23.611Z,2323.00
2024-04-04T11:56:23.599Z,2331.00
2024-04-04T11:57:23.573Z,2341.00
2024-04-04T11:58:23.550Z,2343.00
2024-04-04T11:59:23.560Z,2350.00
2024-04-04T12:00:23.507Z,2321.00
2024-04-04T12:01:23.494Z,2332.00
2024-04-04T12:02:23.478Z,2318.00
2024-04-04T12:03:23.539Z,2277.00
2024-04-04T12:04:23.592Z,2278.00
2024-04-04T12:05:23.643Z,2276.00
2024-04-04T12:06:23.703Z,2258.00
2024-04-04T12:07:23.758Z,2234.00
2024-04-04T12:08:29.632Z,2225.00
2024-04-04T12:09:24.784Z,2213.00
2024-04-04T12:10:23.763Z,2199.00
2024-04-04T12:11:23.745Z,2206.00
2024-04-04T12:12:23.710Z,2177.00
2024-04-04T12:13:23.715Z,2186.00
2024-04-04T12:14:23.668Z,2177.00
2024-04-04T12:15:23.659Z,2180.00
2024-04-04T12:16:23.641Z,2163.00
2024-04-04T12:17:23.600Z,2154.00
2024-04-04T12:18:23.590Z,2153.00
2024-04-04T12:19:23.573Z,2144.00
2024-04-04T12:20:23.549Z,2006.00
2024-04-04T12:21:23.529Z,1904.00
2024-04-04T12:22:23.527Z,1815.00